Time;durP1;ratioP1;P1;durP2;ratioP2;P2;SDS_P1;SDS_P2;PMS_P1;PMS_P2;Temp;Humidity;BMP_temperature;BMP_pressure;BME280_temperature;BME280_humidity;BME280_pressure;Samples;Min_cycle;Max_cycle;Signal;HPM_P1;HPM_P2
2023/05/12 00:00:23;;;;;;;;;;;;;;;;;;5091418;28;19950;-61
2023/05/12 00:02:49;;;;;;;;;;;;;;;;;;5090731;28;19927;-61
2023/05/12 00:05:15;;;;;;;;;;;;;;;;;;5091328;28;19971;-60
2023/05/12 00:07:41;;;;;;;;;;;;;;;;;;5072979;28;19924;-61
2023/05/12 00:10:07;;;;;;;;;;;;;;;;;;5090395;28;19932;-60
2023/05/12 00:12:33;;;;;;;;;;;;;;;;;;5091243;28;19920;-61
2023/05/12 00:14:59;;;;;;;;;;;;;;;;;;5091319;28;19955;-61
2023/05/12 00:17:26;;;;;;;;;;;;;;;;;;5090669;28;19924;-60
2023/05/12 00:19:52;;;;;;;;;;;;;;;;;;5072852;28;19931;-61
2023/05/12 00:22:18;;;;;;;;;;;;;;;;;;5090688;28;19928;-61
2023/05/12 00:24:44;;;;;;;;;;;;;;;;;;5090333;28;20019;-61
2023/05/12 00:27:10;;;;;;;;;;;;;;;;;;5074770;28;19924;-61
2023/05/12 00:29:36;;;;;;;;;;;;;;;;;;5090995;28;19924;-61
2023/05/12 00:32:02;;;;;;;;;;;;;;;;;;5090280;28;19920;-61
2023/05/12 00:34:28;;;;;;;;;;;;;;;;;;5090987;28;19928;-61
2023/05/12 00:36:54;;;;;;;;;;;;;;;;;;5090616;28;19927;-61
2023/05/12 00:39:20;;;;;;;;;;;;;;;;;;5090186;28;19931;-60
2023/05/12 00:41:46;;;;;;;;;;;;;;;;;;5072839;28;20001;-61
2023/05/12 00:44:12;;;;;;;;;;;;;;;;;;5055774;28;19967;-61
2023/05/12 00:46:38;;;;;;;;;;;;;;;;;;5090306;28;20388;-61
2023/05/12 00:49:04;;;;;;;;;;;;;;;;;;5090598;28;19928;-61
2023/05/12 00:51:30;;;;;;;;;;;;;;;;;;5090832;28;19924;-61
2023/05/12 00:53:56;;;;;;;;;;;;;;;;;;5090411;28;19920;-61
2023/05/12 00:56:22;;;;;;;;;;;;;;;;;;5090749;28;20015;-61
2023/05/12 00:58:48;;;;;;;;;;;;;;;;;;5090868;28;19928;-61
2023/05/12 01:01:14;;;;;;;;;;;;;;;;;;5090159;28;19960;-61
2023/05/12 01:03:40;;;;;;;;;;;;;;;;;;5090796;28;19920;-61
2023/05/12 01:06:06;;;;;;;;;;;;;;;;;;5090885;28;19974;-60
2023/05/12 01:08:32;;;;;;;;;;;;;;;;;;5090182;28;19986;-61
2023/05/12 01:10:58;;;;;;;;;;;;;;;;;;5090603;28;19928;-61
2023/05/12 01:13:24;;;;;;;;;;;;;;;;;;5090570;28;19920;-61
2023/05/12 01:15:50;;;;;;;;;;;;;;;;;;5090016;28;20015;-60
2023/05/12 01:18:16;;;;;;;;;;;;;;;;;;5072430;28;20417;-61
2023/05/12 01:20:42;;;;;;;;;;;;;;;;;;5090511;28;20019;-61
2023/05/12 01:23:08;;;;;;;;;;;;;;;;;;5091901;28;19928;-61
2023/05/12 01:25:34;;;;;;;;;;;;;;;;;;5089299;28;19943;-61
2023/05/12 01:28:00;;;;;;;;;;;;;;;;;;5065072;28;19924;-61
2023/05/12 01:30:26;;;;;;;;;;;;;;;;;;5093429;28;19946;-61
2023/05/12 01:32:52;;;;;;;;;;;;;;;;;;5093710;28;19971;-61
2023/05/12 01:35:18;;;;;;;;;;;;;;;;;;5075844;28;19973;-61
2023/05/12 01:37:45;;;;;;;;;;;;;;;;;;5093175;28;19924;-61
2023/05/12 01:40:11;;;;;;;;;;;;;;;;;;5075515;28;19920;-61
2023/05/12 01:42:37;;;;;;;;;;;;;;;;;;5093841;28;19927;-60
2023/05/12 01:45:03;;;;;;;;;;;;;;;;;;5093358;28;19920;-61
2023/05/12 01:47:29;;;;;;;;;;;;;;;;;;5093985;28;19947;-60
2023/05/12 01:49:55;;;;;;;;;;;;;;;;;;5094027;28;19967;-60
2023/05/12 01:52:20;;;;;;;;;;;;;;;;;;5093311;28;20267;-61
2023/05/12 01:54:46;;;;;;;;;;;;;;;;;;5093768;28;19920;-60
2023/05/12 01:57:12;;;;;;;;;;;;;;;;;;5093628;28;19943;-61
2023/05/12 01:59:38;;;;;;;;;;;;;;;;;;5092822;28;19924;-60
2023/05/12 02:02:04;;;;;;;;;;;;;;;;;;5093382;28;19989;-61
2023/05/12 02:04:30;;;;;;;;;;;;;;;;;;5093568;28;19924;-61
2023/05/12 02:06:56;;;;;;;;;;;;;;;;;;5093143;28;20688;-61
2023/05/12 02:09:22;;;;;;;;;;;;;;;;;;5093408;28;19963;-61
2023/05/12 02:11:48;;;;;;;;;;;;;;;;;;5093251;28;19924;-60
2023/05/12 02:14:14;;;;;;;;;;;;;;;;;;5092480;28;20696;-60
2023/05/12 02:16:40;;;;;;;;;;;;;;;;;;5093235;28;19973;-60
2023/05/12 02:19:06;;;;;;;;;;;;;;;;;;5093163;28;19943;-60
2023/05/12 02:21:32;;;;;;;;;;;;;;;;;;5092334;28;19931;-61
2023/05/12 02:23:58;;;;;;;;;;;;;;;;;;5093051;28;19932;-60
2023/05/12 02:26:24;;;;;;;;;;;;;;;;;;5081195;28;19924;-60
2023/05/12 02:28:50;;;;;;;;;;;;;;;;;;5087794;28;19924;-61
2023/05/12 02:31:16;;;;;;;;;;;;;;;;;;5092944;28;19931;-61
2023/05/12 02:33:42;;;;;;;;;;;;;;;;;;5092837;28;19920;-61
2023/05/12 02:36:08;;;;;;;;;;;;;;;;;;5074134;28;19964;-60
2023/05/12 02:38:34;;;;;;;;;;;;;;;;;;5092966;28;19920;-60
2023/05/12 02:41:00;;;;;;;;;;;;;;;;;;5092900;28;19931;-61
2023/05/12 02:43:26;;;;;;;;;;;;;;;;;;5092309;28;19928;-61
2023/05/12 02:45:52;;;;;;;;;;;;;;;;;;5074394;28;19920;-61
2023/05/12 02:48:18;;;;;;;;;;;;;;;;;;5074483;28;19924;-60
2023/05/12 02:50:44;;;;;;;;;;;;;;;;;;5074124;28;19923;-60
2023/05/12 02:53:10;;;;;;;;;;;;;;;;;;5092296;28;20297;-61
2023/05/12 02:55:36;;;;;;;;;;;;;;;;;;5074302;28;19924;-61
2023/05/12 02:58:02;;;;;;;;;;;;;;;;;;5092493;28;19969;-61
2023/05/12 03:00:28;;;;;;;;;;;;;;;;;;5073651;28;20002;-61
2023/05/12 03:02:54;;;;;;;;;;;;;;;;;;5092407;28;19927;-60
2023/05/12 03:05:20;;;;;;;;;;;;;;;;;;5092021;28;19924;-60
2023/05/12 03:07:47;;;;;;;;;;;;;;;;;;5073581;28;20306;-61
2023/05/12 03:10:13;;;;;;;;;;;;;;;;;;5092290;28;19928;-60
2023/05/12 03:12:39;;;;;;;;;;;;;;;;;;5092002;28;19924;-61
2023/05/12 03:15:05;;;;;;;;;;;;;;;;;;5091442;28;19920;-61
2023/05/12 03:17:31;;;;;;;;;;;;;;;;;;5092026;28;20356;-60
2023/05/12 03:19:57;;;;;;;;;;;;;;;;;;5073842;28;19920;-60
2023/05/12 03:22:23;;;;;;;;;;;;;;;;;;5072993;28;19967;-61
2023/05/12 03:24:49;;;;;;;;;;;;;;;;;;5091533;28;19928;-60
2023/05/12 03:27:15;;;;;;;;;;;;;;;;;;5075490;28;21114;-60
2023/05/12 03:29:41;;;;;;;;;;;;;;;;;;5091312;28;20014;-60
2023/05/12 03:32:07;;;;;;;;;;;;;;;;;;5091707;28;19924;-60
2023/05/12 03:34:35;;;;;;;;;;;;;;;;;;5090962;28;22672;-60
2023/05/12 03:37:01;;;;;;;;;;;;;;;;;;5073085;28;20014;-60
2023/05/12 03:39:27;;;;;;;;;;;;;;;;;;5091658;28;19946;-60
2023/05/12 03:41:53;;;;;;;;;;;;;;;;;;5091607;28;19920;-61
2023/05/12 03:44:19;;;;;;;;;;;;;;;;;;5091140;28;19924;-61
2023/05/12 03:46:44;;;;;;;;;;;;;;;;;;5091296;28;20006;-61
2023/05/12 03:49:10;;;;;;;;;;;;;;;;;;5091296;28;19963;-60
2023/05/12 03:51:36;;;;;;;;;;;;;;;;;;5091046;28;19985;-60
2023/05/12 03:54:02;;;;;;;;;;;;;;;;;;5091586;28;19920;-60
2023/05/12 03:56:28;;;;;;;;;;;;;;;;;;5091574;28;19982;-60
2023/05/12 03:58:54;;;;;;;;;;;;;;;;;;5090985;28;19920;-60
2023/05/12 04:01:20;;;;;;;;;;;;;;;;;;5091423;28;19938;-60
2023/05/12 04:03:47;;;;;;;;;;;;;;;;;;5091537;28;20003;-61
2023/05/12 04:06:13;;;;;;;;;;;;;;;;;;5091031;28;20392;-61
2023/05/12 04:08:39;;;;;;;;;;;;;;;;;;5091111;28;19927;-60
2023/05/12 04:11:08;;;;;;;;;;;;;;;;;;5091151;28;19920;-60
2023/05/12 04:13:34;;;;;;;;;;;;;;;;;;5072379;28;19924;-60
2023/05/12 04:16:00;;;;;;;;;;;;;;;;;;5091255;28;19920;-61
2023/05/12 04:18:26;;;;;;;;;;;;;;;;;;5091403;28;19970;-61
2023/05/12 04:20:52;;;;;;;;;;;;;;;;;;5090611;28;19923;-61
2023/05/12 04:23:18;;;;;;;;;;;;;;;;;;5055939;28;19943;-61
2023/05/12 04:25:44;;;;;;;;;;;;;;;;;;5085069;28;19951;-61
2023/05/12 04:28:10;;;;;;;;;;;;;;;;;;5063030;28;20401;-61
2023/05/12 04:30:36;;;;;;;;;;;;;;;;;;5091209;28;20388;-61
2023/05/12 04:33:03;;;;;;;;;;;;;;;;;;5091050;28;19920;-61
2023/05/12 04:35:29;;;;;;;;;;;;;;;;;;5090902;28;19931;-61
2023/05/12 04:37:54;;;;;;;;;;;;;;;;;;5091038;28;19924;-61
2023/05/12 04:40:20;;;;;;;;;;;;;;;;;;5091281;28;19930;-61
2023/05/12 04:42:46;;;;;;;;;;;;;;;;;;5090727;28;20058;-60
2023/05/12 04:45:12;;;;;;;;;;;;;;;;;;5091284;28;19934;-61
2023/05/12 04:47:38;;;;;;;;;;;;;;;;;;5073085;28;19931;-60
2023/05/12 04:50:04;;;;;;;;;;;;;;;;;;5090348;28;19950;-61
2023/05/12 04:52:30;;;;;;;;;;;;;;;;;;5091168;28;19924;-60
2023/05/12 04:54:56;;;;;;;;;;;;;;;;;;5090959;28;19920;-61
2023/05/12 04:57:22;;;;;;;;;;;;;;;;;;5073239;28;19920;-61
2023/05/12 04:59:48;;;;;;;;;;;;;;;;;;5095109;28;19981;-61
2023/05/12 05:02:14;;;;;;;;;;;;;;;;;;5094934;28;19920;-61
2023/05/12 05:04:40;;;;;;;;;;;;;;;;;;5085674;28;19924;-61
2023/05/12 05:07:06;;;;;;;;;;;;;;;;;;5089385;28;20042;-61
2023/05/12 05:09:32;;;;;;;;;;;;;;;;;;5094163;28;19978;-62
2023/05/12 05:11:58;;;;;;;;;;;;;;;;;;5093325;28;19920;-62
2023/05/12 05:14:24;;;;;;;;;;;;;;;;;;5094489;28;19927;-62
2023/05/12 05:16:49;;;;;;;;;;;;;;;;;;5094695;28;19962;-62
2023/05/12 05:19:15;;;;;;;;;;;;;;;;;;5075534;28;19920;-62
2023/05/12 05:21:41;;;;;;;;;;;;;;;;;;5094399;28;19943;-62
2023/05/12 05:24:07;;;;;;;;;;;;;;;;;;5094261;28;19928;-62
2023/05/12 05:26:33;;;;;;;;;;;;;;;;;;5075540;28;19946;-61
2023/05/12 05:28:59;;;;;;;;;;;;;;;;;;5094235;28;20086;-61
2023/05/12 05:31:27;;;;;;;;;;;;;;;;;;5094170;28;19966;-62
2023/05/12 05:33:53;;;;;;;;;;;;;;;;;;5075171;28;19931;-62
2023/05/12 05:36:19;;;;;;;;;;;;;;;;;;5094382;28;19924;-60
2023/05/12 05:38:45;;;;;;;;;;;;;;;;;;5089261;28;20437;-60
2023/05/12 05:41:12;;;;;;;;;;;;;;;;;;5086614;28;19928;-59
2023/05/12 05:43:38;;;;;;;;;;;;;;;;;;5081915;28;19982;-59
2023/05/12 05:46:04;;;;;;;;;;;;;;;;;;5082034;28;19963;-59
2023/05/12 05:48:29;;;;;;;;;;;;;;;;;;5079818;28;19924;-58
2023/05/12 05:50:55;;;;;;;;;;;;;;;;;;5084896;28;19931;-58
2023/05/12 05:53:21;;;;;;;;;;;;;;;;;;5080992;28;19925;-58
2023/05/12 05:55:47;;;;;;;;;;;;;;;;;;5093167;28;19976;-59
2023/05/12 05:58:14;;;;;;;;;;;;;;;;;;5093223;28;19983;-57
2023/05/12 06:00:40;;;;;;;;;;;;;;;;;;5093183;28;19981;-57
2023/05/12 06:03:06;;;;;;;;;;;;;;;;;;5093123;28;19920;-57
2023/05/12 06:05:32;;;;;;;;;;;;;;;;;;5092937;28;20292;-57
2023/05/12 06:07:58;;;;;;;;;;;;;;;;;;5092910;28;19920;-56
2023/05/12 06:10:24;;;;;;;;;;;;;;;;;;5092945;28;19924;-60
2023/05/12 06:12:50;;;;;;;;;;;;;;;;;;5092254;28;19924;-60
2023/05/12 06:15:16;;;;;;;;;;;;;;;;;;5074470;28;20447;-58
2023/05/12 06:17:42;;;;;;;;;;;;;;;;;;5074146;28;20363;-58
2023/05/12 06:20:08;;;;;;;;;;;;;;;;;;5081025;28;19921;-59
2023/05/12 06:22:34;;;;;;;;;;;;;;;;;;5078587;28;19932;-59
2023/05/12 06:25:00;;;;;;;;;;;;;;;;;;5082293;28;19928;-59
2023/05/12 06:27:26;;;;;;;;;;;;;;;;;;5082961;28;20351;-58
2023/05/12 06:29:52;;;;;;;;;;;;;;;;;;5080704;28;19947;-58
2023/05/12 06:32:18;;;;;;;;;;;;;;;;;;5087157;28;19927;-57
2023/05/12 06:34:44;;;;;;;;;;;;;;;;;;5088384;28;19942;-60
2023/05/12 06:37:10;;;;;;;;;;;;;;;;;;5087440;28;19964;-59
2023/05/12 06:39:38;;;;;;;;;;;;;;;;;;5072343;28;20385;-60
2023/05/12 06:42:04;;;;;;;;;;;;;;;;;;5087996;28;20282;-60
2023/05/12 06:44:30;;;;;;;;;;;;;;;;;;5086849;28;20060;-59
2023/05/12 06:46:56;;;;;;;;;;;;;;;;;;5092104;28;19961;-60
2023/05/12 06:49:23;;;;;;;;;;;;;;;;;;5082585;28;19958;-59
2023/05/12 06:51:49;;;;;;;;;;;;;;;;;;5091031;28;19928;-59
2023/05/12 06:54:15;;;;;;;;;;;;;;;;;;5091370;28;20516;-60
2023/05/12 06:56:41;;;;;;;;;;;;;;;;;;5085594;28;19969;-60
2023/05/12 06:59:07;;;;;;;;;;;;;;;;;;5078201;28;19924;-59
2023/05/12 07:01:33;;;;;;;;;;;;;;;;;;5088643;28;20003;-60
2023/05/12 07:03:58;;;;;;;;;;;;;;;;;;5091066;28;19928;-58
2023/05/12 07:06:28;;;;;;;;;;;;;;;;;;5069115;28;19946;-58
2023/05/12 07:08:53;;;;;;;;;;;;;;;;;;5073017;28;19968;-60
2023/05/12 07:11:20;;;;;;;;;;;;;;;;;;5090185;28;19955;-59
2023/05/12 07:13:46;;;;;;;;;;;;;;;;;;5084779;28;19943;-59
2023/05/12 07:16:12;;;;;;;;;;;;;;;;;;5091472;28;19924;-58
2023/05/12 07:18:38;;;;;;;;;;;;;;;;;;5091158;28;19926;-59
2023/05/12 07:21:04;;;;;;;;;;;;;;;;;;5089775;28;20416;-60
2023/05/12 07:23:30;;;;;;;;;;;;;;;;;;5086032;28;19928;-58
2023/05/12 07:25:56;;;;;;;;;;;;;;;;;;5087406;28;19951;-60
2023/05/12 07:28:22;;;;;;;;;;;;;;;;;;5091176;28;19924;-58
2023/05/12 07:30:48;;;;;;;;;;;;;;;;;;5091207;28;20018;-61
2023/05/12 07:33:14;;;;;;;;;;;;;;;;;;5072168;28;19924;-58
2023/05/12 07:35:40;;;;;;;;;;;;;;;;;;5091189;28;19950;-59
2023/05/12 07:38:08;;;;;;;;;;;;;;;;;;5090574;28;19920;-58
2023/05/12 07:40:34;;;;;;;;;;;;;;;;;;5085954;28;19969;-59
2023/05/12 07:43:01;;;;;;;;;;;;;;;;;;5072752;28;19924;-59
2023/05/12 07:45:27;;;;;;;;;;;;;;;;;;5091040;28;19927;-58
2023/05/12 07:47:53;;;;;;;;;;;;;;;;;;5090329;28;19924;-59
2023/05/12 07:50:19;;;;;;;;;;;;;;;;;;5090743;28;19932;-59
2023/05/12 07:52:45;;;;;;;;;;;;;;;;;;5089961;28;19924;-57
2023/05/12 07:55:11;;;;;;;;;;;;;;;;;;5090182;28;19969;-57
2023/05/12 07:57:37;;;;;;;;;;;;;;;;;;5090726;28;20002;-58
2023/05/12 08:00:03;;;;;;;;;;;;;;;;;;5091164;28;19920;-57
2023/05/12 08:02:29;;;;;;;;;;;;;;;;;;5084921;28;19923;-58
2023/05/12 08:04:55;;;;;;;;;;;;;;;;;;5090942;28;19924;-59
2023/05/12 08:07:21;;;;;;;;;;;;;;;;;;5087723;28;19947;-59
2023/05/12 08:09:47;;;;;;;;;;;;;;;;;;5082528;28;19924;-59
2023/05/12 08:12:13;;;;;;;;;;;;;;;;;;5074961;28;19966;-58
2023/05/12 08:14:39;;;;;;;;;;;;;;;;;;5089450;28;19932;-59
2023/05/12 08:17:05;;;;;;;;;;;;;;;;;;5088099;28;19942;-59
2023/05/12 08:19:31;;;;;;;;;;;;;;;;;;5086170;28;20397;-59
2023/05/12 08:21:57;;;;;;;;;;;;;;;;;;5078265;28;19924;-59
2023/05/12 08:24:23;;;;;;;;;;;;;;;;;;5081735;28;19963;-60
2023/05/12 08:26:49;;;;;;;;;;;;;;;;;;5080859;28;20010;-59
2023/05/12 08:29:15;;;;;;;;;;;;;;;;;;5083134;28;19977;-57
2023/05/12 08:31:41;;;;;;;;;;;;;;;;;;5089325;28;19927;-58
2023/05/12 08:34:07;;;;;;;;;;;;;;;;;;5094215;28;19924;-59
2023/05/12 08:36:33;;;;;;;;;;;;;;;;;;5069377;28;20071;-59
2023/05/12 08:38:59;;;;;;;;;;;;;;;;;;5087394;28;20732;-60
2023/05/12 08:41:25;;;;;;;;;;;;;;;;;;5090927;28;19924;-60
2023/05/12 08:43:51;;;;;;;;;;;;;;;;;;5094198;28;19920;-58
2023/05/12 08:46:17;;;;;;;;;;;;;;;;;;5093339;28;20081;-60
2023/05/12 08:48:43;;;;;;;;;;;;;;;;;;5084504;28;19928;-59
2023/05/12 08:51:10;;;;;;;;;;;;;;;;;;5084769;28;19932;-59
2023/05/12 08:53:36;;;;;;;;;;;;;;;;;;5073905;28;19920;-60
2023/05/12 08:56:02;;;;;;;;;;;;;;;;;;5069387;28;19924;-60
2023/05/12 08:58:28;;;;;;;;;;;;;;;;;;5087233;28;19970;-60
2023/05/12 09:00:54;;;;;;;;;;;;;;;;;;5073786;28;20007;-60
2023/05/12 09:03:20;;;;;;;;;;;;;;;;;;5087574;28;19923;-60
2023/05/12 09:05:46;;;;;;;;;;;;;;;;;;5081701;28;19943;-61
2023/05/12 09:08:12;;;;;;;;;;;;;;;;;;5093569;28;19927;-59
2023/05/12 09:10:38;;;;;;;;;;;;;;;;;;5083322;28;19924;-60
2023/05/12 09:13:04;;;;;;;;;;;;;;;;;;5090456;28;19920;-58
2023/05/12 09:15:30;;;;;;;;;;;;;;;;;;5092429;28;20243;-60
2023/05/12 09:17:56;;;;;;;;;;;;;;;;;;5088509;28;19927;-60
2023/05/12 09:20:22;;;;;;;;;;;;;;;;;;5085014;28;20005;-60
2023/05/12 09:22:48;;;;;;;;;;;;;;;;;;5091884;28;19924;-59
2023/05/12 09:25:15;;;;;;;;;;;;;;;;;;5074600;28;19947;-59
2023/05/12 09:27:41;;;;;;;;;;;;;;;;;;5094002;28;20019;-60
2023/05/12 09:30:07;;;;;;;;;;;;;;;;;;5089143;28;20031;-60
2023/05/12 09:32:33;;;;;;;;;;;;;;;;;;5083379;28;19959;-61
2023/05/12 09:34:59;;;;;;;;;;;;;;;;;;5081101;28;19928;-62
2023/05/12 09:37:25;;;;;;;;;;;;;;;;;;5093362;28;19924;-62
2023/05/12 09:39:51;;;;;;;;;;;;;;;;;;5085664;28;20572;-61
2023/05/12 09:42:17;;;;;;;;;;;;;;;;;;5085053;28;19920;-60
2023/05/12 09:44:43;;;;;;;;;;;;;;;;;;5083210;28;19982;-60
2023/05/12 09:47:09;;;;;;;;;;;;;;;;;;5079934;28;20012;-58
2023/05/12 09:49:35;;;;;;;;;;;;;;;;;;5075364;28;19982;-59
2023/05/12 09:52:01;;;;;;;;;;;;;;;;;;5081061;28;19924;-60
2023/05/12 09:54:27;;;;;;;;;;;;;;;;;;5079869;28;19920;-61
2023/05/12 09:56:53;;;;;;;;;;;;;;;;;;5082405;28;19974;-59
2023/05/12 09:59:19;;;;;;;;;;;;;;;;;;5089696;28;19924;-60
2023/05/12 10:01:45;;;;;;;;;;;;;;;;;;5083703;28;19929;-59
2023/05/12 10:04:11;;;;;;;;;;;;;;;;;;5081730;28;19925;-60
2023/05/12 10:06:37;;;;;;;;;;;;;;;;;;5080490;28;20316;-60
2023/05/12 10:09:03;;;;;;;;;;;;;;;;;;5085112;28;19924;-61
2023/05/12 10:11:29;;;;;;;;;;;;;;;;;;5081829;28;20678;-60
2023/05/12 10:13:55;;;;;;;;;;;;;;;;;;5074442;28;19931;-62
2023/05/12 10:16:21;;;;;;;;;;;;;;;;;;5088175;28;19937;-60
2023/05/12 10:18:47;;;;;;;;;;;;;;;;;;5085118;28;19924;-59
2023/05/12 10:21:13;;;;;;;;;;;;;;;;;;5073275;28;19994;-60
2023/05/12 10:23:43;;;;;;;;;;;;;;;;;;5081146;28;19932;-58
2023/05/12 10:26:09;;;;;;;;;;;;;;;;;;5080257;28;19928;-60
2023/05/12 10:28:35;;;;;;;;;;;;;;;;;;5067022;28;20598;-60
2023/05/12 10:31:00;;;;;;;;;;;;;;;;;;5070107;28;19928;-60
2023/05/12 10:33:27;;;;;;;;;;;;;;;;;;5089121;28;19920;-61
2023/05/12 10:35:53;;;;;;;;;;;;;;;;;;5089095;28;20414;-61
2023/05/12 10:38:19;;;;;;;;;;;;;;;;;;5086840;28;19973;-61
2023/05/12 10:40:45;;;;;;;;;;;;;;;;;;5085252;28;20442;-61
2023/05/12 10:43:11;;;;;;;;;;;;;;;;;;5088563;28;20007;-61
2023/05/12 10:45:37;;;;;;;;;;;;;;;;;;5087952;28;19924;-61
2023/05/12 10:48:03;;;;;;;;;;;;;;;;;;5070070;28;19920;-61
2023/05/12 10:50:29;;;;;;;;;;;;;;;;;;5055615;28;19935;-61
2023/05/12 10:52:55;;;;;;;;;;;;;;;;;;5088680;28;19924;-61
2023/05/12 10:55:21;;;;;;;;;;;;;;;;;;5088057;28;19931;-61
2023/05/12 10:57:47;;;;;;;;;;;;;;;;;;5088704;28;19924;-61
2023/05/12 11:00:13;;;;;;;;;;;;;;;;;;5088223;28;19924;-61
2023/05/12 11:02:39;;;;;;;;;;;;;;;;;;5088592;28;19928;-61
2023/05/12 11:05:05;;;;;;;;;;;;;;;;;;5088574;28;19927;-61
2023/05/12 11:07:31;;;;;;;;;;;;;;;;;;5087251;28;19924;-61
2023/05/12 11:09:57;;;;;;;;;;;;;;;;;;5077685;28;19977;-61
2023/05/12 11:12:23;;;;;;;;;;;;;;;;;;5086140;28;19924;-62
2023/05/12 11:14:49;;;;;;;;;;;;;;;;;;5088608;28;19976;-62
2023/05/12 11:17:15;;;;;;;;;;;;;;;;;;5088109;28;19928;-62
2023/05/12 11:19:41;;;;;;;;;;;;;;;;;;5087795;28;19966;-62
2023/05/12 11:22:08;;;;;;;;;;;;;;;;;;5088363;28;19924;-62
2023/05/12 11:24:34;;;;;;;;;;;;;;;;;;5088268;28;19928;-61
2023/05/12 11:27:00;;;;;;;;;;;;;;;;;;5074806;28;19931;-62
2023/05/12 11:29:26;;;;;;;;;;;;;;;;;;5084535;28;19928;-59
2023/05/12 11:31:52;;;;;;;;;;;;;;;;;;5076527;28;20019;-60
2023/05/12 11:34:17;;;;;;;;;;;;;;;;;;5085157;28;19920;-59
2023/05/12 11:36:44;;;;;;;;;;;;;;;;;;5085055;28;19928;-58
2023/05/12 11:39:10;;;;;;;;;;;;;;;;;;5083792;28;19924;-59
2023/05/12 11:41:36;;;;;;;;;;;;;;;;;;5080832;28;20275;-59
2023/05/12 11:44:02;;;;;;;;;;;;;;;;;;5084486;28;19920;-60
2023/05/12 11:46:27;;;;;;;;;;;;;;;;;;5083379;28;20297;-61
2023/05/12 11:48:53;;;;;;;;;;;;;;;;;;5082929;28;19982;-59
2023/05/12 11:51:19;;;;;;;;;;;;;;;;;;5080173;28;20001;-59
2023/05/12 11:53:45;;;;;;;;;;;;;;;;;;5086897;28;19954;-59
2023/05/12 11:56:12;;;;;;;;;;;;;;;;;;5083686;28;19924;-60
2023/05/12 11:58:38;;;;;;;;;;;;;;;;;;5080373;28;19927;-59
2023/05/12 12:01:04;;;;;;;;;;;;;;;;;;5086679;28;19931;-60
2023/05/12 12:03:30;;;;;;;;;;;;;;;;;;5082469;28;19920;-61
2023/05/12 12:05:56;;;;;;;;;;;;;;;;;;5081712;28;19999;-60
2023/05/12 12:08:22;;;;;;;;;;;;;;;;;;5073145;28;20007;-62
2023/05/12 12:10:48;;;;;;;;;;;;;;;;;;5068931;28;20007;-62
2023/05/12 12:13:14;;;;;;;;;;;;;;;;;;5077056;28;19924;-60
2023/05/12 12:15:40;;;;;;;;;;;;;;;;;;5086297;28;20724;-60
2023/05/12 12:18:06;;;;;;;;;;;;;;;;;;5071549;28;20003;-59
2023/05/12 12:20:32;;;;;;;;;;;;;;;;;;5079099;28;19926;-59
2023/05/12 12:22:58;;;;;;;;;;;;;;;;;;5087078;28;19924;-61
2023/05/12 12:25:24;;;;;;;;;;;;;;;;;;5079519;28;19928;-61
2023/05/12 12:27:51;;;;;;;;;;;;;;;;;;5087215;28;20018;-61
2023/05/12 12:30:17;;;;;;;;;;;;;;;;;;5086896;28;20419;-60
2023/05/12 12:32:43;;;;;;;;;;;;;;;;;;5087225;28;19981;-58
2023/05/12 12:35:10;;;;;;;;;;;;;;;;;;5081494;28;19962;-60
2023/05/12 12:37:36;;;;;;;;;;;;;;;;;;5083970;28;20389;-59
2023/05/12 12:40:07;;;;;;;;;;;;;;;;;;5089055;28;20599;-61
2023/05/12 12:42:33;;;;;;;;;;;;;;;;;;5085967;28;19997;-62
2023/05/12 12:44:59;;;;;;;;;;;;;;;;;;5067675;28;20048;-62
2023/05/12 12:47:25;;;;;;;;;;;;;;;;;;5078898;28;19924;-61
2023/05/12 12:49:51;;;;;;;;;;;;;;;;;;5080089;28;19924;-61
2023/05/12 12:52:17;;;;;;;;;;;;;;;;;;5081254;28;19924;-61
2023/05/12 12:54:43;;;;;;;;;;;;;;;;;;5085440;28;19924;-60
2023/05/12 12:57:09;;;;;;;;;;;;;;;;;;5079844;28;20173;-61
2023/05/12 12:59:36;;;;;;;;;;;;;;;;;;5086372;28;20345;-61
2023/05/12 13:02:02;;;;;;;;;;;;;;;;;;5070567;28;19924;-61
2023/05/12 13:04:28;;;;;;;;;;;;;;;;;;5080917;28;19924;-61
2023/05/12 13:06:53;;;;;;;;;;;;;;;;;;5081983;28;20010;-61
2023/05/12 13:09:19;;;;;;;;;;;;;;;;;;5086779;28;19928;-61
2023/05/12 13:11:46;;;;;;;;;;;;;;;;;;5080647;28;19920;-62
2023/05/12 13:14:11;;;;;;;;;;;;;;;;;;5086312;28;19966;-62
2023/05/12 13:16:37;;;;;;;;;;;;;;;;;;5079100;28;19923;-62
2023/05/12 13:19:03;;;;;;;;;;;;;;;;;;5089374;28;19920;-62
2023/05/12 13:21:29;;;;;;;;;;;;;;;;;;5090592;28;20019;-62
2023/05/12 13:23:55;;;;;;;;;;;;;;;;;;5091166;28;20010;-62
2023/05/12 13:26:22;;;;;;;;;;;;;;;;;;5086530;28;19920;-61
2023/05/12 13:28:48;;;;;;;;;;;;;;;;;;5084717;28;19926;-62
2023/05/12 13:31:14;;;;;;;;;;;;;;;;;;5090824;28;20341;-62
2023/05/12 13:33:40;;;;;;;;;;;;;;;;;;5090984;28;19924;-61
2023/05/12 13:36:06;;;;;;;;;;;;;;;;;;5090229;28;19924;-61
2023/05/12 13:38:32;;;;;;;;;;;;;;;;;;5090946;28;19946;-60
2023/05/12 13:40:58;;;;;;;;;;;;;;;;;;5090980;28;19931;-61
2023/05/12 13:43:24;;;;;;;;;;;;;;;;;;5087412;28;20011;-61
2023/05/12 13:45:50;;;;;;;;;;;;;;;;;;5082064;28;20034;-61
2023/05/12 13:48:16;;;;;;;;;;;;;;;;;;5066803;28;19920;-61
2023/05/12 13:50:42;;;;;;;;;;;;;;;;;;5076430;28;20520;-61
2023/05/12 13:53:08;;;;;;;;;;;;;;;;;;5084090;28;19966;-61
2023/05/12 13:55:37;;;;;;;;;;;;;;;;;;5091317;28;19920;-61
2023/05/12 13:58:03;;;;;;;;;;;;;;;;;;5070491;28;20367;-62
2023/05/12 14:00:29;;;;;;;;;;;;;;;;;;5066580;28;19935;-62
2023/05/12 14:02:56;;;;;;;;;;;;;;;;;;5085362;28;19927;-63
2023/05/12 14:05:22;;;;;;;;;;;;;;;;;;5090387;28;20381;-62
2023/05/12 14:07:48;;;;;;;;;;;;;;;;;;5090906;28;19920;-62
2023/05/12 14:10:14;;;;;;;;;;;;;;;;;;5091112;28;19932;-62
2023/05/12 14:12:41;;;;;;;;;;;;;;;;;;5090230;28;19924;-62
2023/05/12 14:15:07;;;;;;;;;;;;;;;;;;5072306;28;20019;-62
2023/05/12 14:17:33;;;;;;;;;;;;;;;;;;5090692;28;20014;-62
2023/05/12 14:20:00;;;;;;;;;;;;;;;;;;5083269;28;19924;-62
2023/05/12 14:22:26;;;;;;;;;;;;;;;;;;5090538;28;19928;-62
2023/05/12 14:24:52;;;;;;;;;;;;;;;;;;5090578;28;20354;-62
2023/05/12 14:27:18;;;;;;;;;;;;;;;;;;5071691;28;19935;-62
2023/05/12 14:29:44;;;;;;;;;;;;;;;;;;5090131;28;19947;-62
2023/05/12 14:32:11;;;;;;;;;;;;;;;;;;5090448;28;20433;-62
2023/05/12 14:34:37;;;;;;;;;;;;;;;;;;5089800;28;19930;-62
2023/05/12 14:37:03;;;;;;;;;;;;;;;;;;5089909;28;20433;-62
2023/05/12 14:39:29;;;;;;;;;;;;;;;;;;5072055;28;19924;-62
2023/05/12 14:41:55;;;;;;;;;;;;;;;;;;5089587;28;19927;-62
2023/05/12 14:44:21;;;;;;;;;;;;;;;;;;5072042;28;19928;-62
2023/05/12 14:46:47;;;;;;;;;;;;;;;;;;5090283;28;19933;-62
2023/05/12 14:49:13;;;;;;;;;;;;;;;;;;5081715;28;20015;-62
2023/05/12 14:51:39;;;;;;;;;;;;;;;;;;5070236;28;19924;-62
2023/05/12 14:54:05;;;;;;;;;;;;;;;;;;5088699;28;20405;-62
2023/05/12 14:56:33;;;;;;;;;;;;;;;;;;5089557;28;19965;-62
2023/05/12 14:58:59;;;;;;;;;;;;;;;;;;5090336;28;19949;-62
2023/05/12 15:01:25;;;;;;;;;;;;;;;;;;5089560;28;20491;-62
2023/05/12 15:03:53;;;;;;;;;;;;;;;;;;5089624;28;19920;-62
2023/05/12 15:06:19;;;;;;;;;;;;;;;;;;5090083;28;19955;-62
2023/05/12 15:08:45;;;;;;;;;;;;;;;;;;5089843;28;19924;-62
2023/05/12 15:11:11;;;;;;;;;;;;;;;;;;5089041;28;20393;-62
2023/05/12 15:13:37;;;;;;;;;;;;;;;;;;5090020;28;19991;-62
2023/05/12 15:16:03;;;;;;;;;;;;;;;;;;5089667;28;19920;-62
2023/05/12 15:18:29;;;;;;;;;;;;;;;;;;5054326;28;19935;-62
2023/05/12 15:20:55;;;;;;;;;;;;;;;;;;5089307;28;20293;-62
2023/05/12 15:23:21;;;;;;;;;;;;;;;;;;5071530;28;20438;-62
2023/05/12 15:25:47;;;;;;;;;;;;;;;;;;5089048;28;20021;-62
2023/05/12 15:28:13;;;;;;;;;;;;;;;;;;5089395;28;20006;-62
2023/05/12 15:30:39;;;;;;;;;;;;;;;;;;5089333;28;20024;-62
2023/05/12 15:33:05;;;;;;;;;;;;;;;;;;5088620;28;19928;-62
2023/05/12 15:35:31;;;;;;;;;;;;;;;;;;5089108;28;19921;-62
2023/05/12 15:37:57;;;;;;;;;;;;;;;;;;5089291;28;19924;-62
2023/05/12 15:40:23;;;;;;;;;;;;;;;;;;5088711;28;19924;-62
2023/05/12 15:42:49;;;;;;;;;;;;;;;;;;5088565;28;19931;-62
2023/05/12 15:45:15;;;;;;;;;;;;;;;;;;5089442;28;19969;-62
2023/05/12 15:47:41;;;;;;;;;;;;;;;;;;5089346;28;19920;-61
2023/05/12 15:50:07;;;;;;;;;;;;;;;;;;5070729;28;19961;-61
2023/05/12 15:52:33;;;;;;;;;;;;;;;;;;5089679;28;19981;-62
2023/05/12 15:54:59;;;;;;;;;;;;;;;;;;5089473;28;19978;-62
2023/05/12 15:57:25;;;;;;;;;;;;;;;;;;5088445;28;19967;-62
2023/05/12 15:59:51;;;;;;;;;;;;;;;;;;5088993;28;19946;-62
2023/05/12 16:02:17;;;;;;;;;;;;;;;;;;5088528;28;19924;-62
2023/05/12 16:04:43;;;;;;;;;;;;;;;;;;5088343;28;19920;-62
2023/05/12 16:07:10;;;;;;;;;;;;;;;;;;5089107;28;19931;-62
2023/05/12 16:09:36;;;;;;;;;;;;;;;;;;5088818;28;19928;-62
2023/05/12 16:12:01;;;;;;;;;;;;;;;;;;5088510;28;20260;-62
2023/05/12 16:14:27;;;;;;;;;;;;;;;;;;5070447;28;19928;-62
2023/05/12 16:16:53;;;;;;;;;;;;;;;;;;5070302;28;19956;-62
2023/05/12 16:19:19;;;;;;;;;;;;;;;;;;5087888;28;20019;-62
2023/05/12 16:21:45;;;;;;;;;;;;;;;;;;5088646;28;19920;-62
2023/05/12 16:24:11;;;;;;;;;;;;;;;;;;5088232;28;20023;-62
2023/05/12 16:26:37;;;;;;;;;;;;;;;;;;5074774;28;19928;-62
2023/05/12 16:29:03;;;;;;;;;;;;;;;;;;5085955;28;19920;-63
2023/05/12 16:31:29;;;;;;;;;;;;;;;;;;5088967;28;19932;-62
2023/05/12 16:33:55;;;;;;;;;;;;;;;;;;5088090;28;19920;-62
2023/05/12 16:36:23;;;;;;;;;;;;;;;;;;5088902;28;19924;-62